Time;durP1;ratioP1;P1;durP2;ratioP2;P2;SDS_P1;SDS_P2;PMS_P1;PMS_P2;Temp;Humidity;BMP_temperature;BMP_pressure;BME280_temperature;BME280_humidity;BME280_pressure;Samples;Min_cycle;Max_cycle;Signal;HPM_P1;HPM_P2
2021/08/06 00:01:22;;;;;;;6.05;1.40;;;16.70;83.80;;;;;;5113003;28;20024;-81
2021/08/06 00:03:48;;;;;;;5.50;1.58;;;16.70;83.80;;;;;;5112514;28;20483;-81
2021/08/06 00:06:13;;;;;;;5.90;1.42;;;16.70;83.90;;;;;;5112159;28;20495;-81
2021/08/06 00:08:39;;;;;;;8.43;1.35;;;16.70;83.80;;;;;;5112350;28;20495;-81
2021/08/06 00:11:05;;;;;;;6.40;1.92;;;16.70;83.90;;;;;;5094359;28;20027;-81
2021/08/06 00:13:31;;;;;;;8.32;1.70;;;16.60;84.00;;;;;;5112575;28;20040;-81
2021/08/06 00:15:57;;;;;;;4.88;1.40;;;16.60;84.00;;;;;;5111748;28;20040;-81
2021/08/06 00:18:23;;;;;;;6.38;1.60;;;16.60;83.90;;;;;;5112524;28;20111;-81
2021/08/06 00:20:49;;;;;;;6.80;1.63;;;16.60;83.60;;;;;;5108672;28;20031;-80
2021/08/06 00:23:15;;;;;;;7.13;1.63;;;16.60;84.10;;;;;;5099228;28;20032;-80
2021/08/06 00:25:40;;;;;;;5.85;1.27;;;16.50;84.80;;;;;;5112123;28;20055;-82
2021/08/06 00:28:07;;;;;;;5.10;1.80;;;16.60;84.90;;;;;;5112641;28;20102;-82
2021/08/06 00:30:33;;;;;;;5.75;1.33;;;16.60;84.70;;;;;;5112081;28;20372;-81
2021/08/06 00:32:58;;;;;;;5.15;1.30;;;16.60;84.70;;;;;;5112015;28;20039;-81
2021/08/06 00:35:24;;;;;;;4.70;1.55;;;16.60;84.70;;;;;;5111859;28;20030;-83
2021/08/06 00:37:51;;;;;;;3.70;1.00;;;16.50;84.50;;;;;;5093151;28;20491;-81
2021/08/06 00:40:17;;;;;;;5.00;1.45;;;16.50;84.50;;;;;;5112696;28;20071;-82
2021/08/06 00:42:42;;;;;;;5.55;1.70;;;16.50;84.60;;;;;;5111891;28;20023;-80
2021/08/06 00:45:08;;;;;;;4.80;1.50;;;16.50;85.10;;;;;;5093789;28;20100;-80
2021/08/06 00:47:34;;;;;;;6.88;1.50;;;16.50;85.40;;;;;;5111838;28;20050;-81
2021/08/06 00:50:01;;;;;;;3.85;1.23;;;16.50;84.80;;;;;;5111616;28;20063;-80
2021/08/06 00:52:26;;;;;;;6.30;1.50;;;16.40;84.70;;;;;;5112268;28;20499;-81
2021/08/06 00:54:53;;;;;;;8.00;1.45;;;16.40;85.40;;;;;;5099735;28;20034;-81
2021/08/06 00:57:18;;;;;;;6.25;1.20;;;16.40;85.20;;;;;;5106321;28;20081;-80
2021/08/06 00:59:44;;;;;;;5.18;1.30;;;16.40;84.60;;;;;;5109227;28;20407;-81
2021/08/06 01:02:52;;;;;;;4.35;1.00;;;16.30;84.80;;;;;;5079682;28;20031;-81
2021/08/06 01:05:21;;;;;;;7.70;1.20;;;16.30;86.30;;;;;;5037920;28;20040;-81
2021/08/06 01:08:01;;;;;;;5.07;1.30;;;16.30;85.30;;;;;;5050221;28;20051;-80
2021/08/06 01:11:01;;;;;;;6.43;1.30;;;16.30;85.10;;;;;;5045954;28;20032;-82
2021/08/06 01:13:37;;;;;;;5.82;1.00;;;16.30;85.30;;;;;;5045933;28;20044;-81
2021/08/06 01:16:04;;;;;;;4.55;0.88;;;16.30;85.60;;;;;;5038166;28;20081;-81
2021/08/06 01:18:33;;;;;;;5.82;1.05;;;16.30;85.50;;;;;;5030633;28;20580;-81
2021/08/06 01:21:09;;;;;;;7.03;1.30;;;16.40;85.00;;;;;;5050072;28;20111;-81
2021/08/06 01:23:37;;;;;;;2.40;0.73;;;16.30;84.80;;;;;;5033401;28;20029;-81
2021/08/06 01:26:04;;;;;;;3.22;0.88;;;16.20;84.90;;;;;;5033337;28;20453;-81
2021/08/06 01:28:34;;;;;;;2.00;0.65;;;16.20;84.80;;;;;;5032551;28;20037;-80
2021/08/06 01:31:00;;;;;;;3.60;0.90;;;16.10;85.10;;;;;;5038141;28;20033;-81
2021/08/06 01:33:26;;;;;;;5.35;1.13;;;16.10;85.60;;;;;;5029608;28;20414;-82
2021/08/06 01:35:52;;;;;;;3.22;1.08;;;16.10;85.90;;;;;;5048464;28;20168;-81
2021/08/06 01:38:18;;;;;;;4.50;1.05;;;16.10;86.60;;;;;;5030117;28;20028;-81
2021/08/06 01:41:11;;;;;;;3.08;0.80;;;16.20;86.70;;;;;;5095211;28;20039;-81
2021/08/06 01:43:48;;;;;;;6.07;1.23;;;16.20;85.70;;;;;;5109459;28;20077;-80
2021/08/06 01:46:24;;;;;;;2.90;1.13;;;16.20;85.60;;;;;;5095752;28;20446;-80
2021/08/06 01:49:01;;;;;;;3.38;1.13;;;16.10;86.10;;;;;;5101626;28;20535;-81
2021/08/06 01:51:32;;;;;;;3.45;0.90;;;16.10;86.30;;;;;;5103181;28;20024;-80
2021/08/06 01:53:59;;;;;;;4.93;0.90;;;16.20;86.20;;;;;;5108050;28;20068;-81
2021/08/06 01:56:25;;;;;;;4.05;0.95;;;16.20;86.00;;;;;;5114807;28;20488;-82
2021/08/06 01:58:54;;;;;;;2.65;0.90;;;16.10;85.80;;;;;;5098554;27;20080;-82
2021/08/06 02:01:20;;;;;;;3.78;1.00;;;16.10;85.40;;;;;;5115165;28;20070;-84
2021/08/06 02:03:45;;;;;;;4.50;0.93;;;16.00;85.30;;;;;;5114881;28;20499;-82
2021/08/06 02:06:11;;;;;;;3.65;0.82;;;16.00;85.90;;;;;;5114782;27;20027;-82
2021/08/06 02:08:38;;;;;;;5.57;1.00;;;15.90;86.30;;;;;;5114843;27;20035;-82
2021/08/06 02:11:04;;;;;;;5.60;1.23;;;16.00;87.30;;;;;;5114694;28;20020;-82
2021/08/06 02:13:30;;;;;;;6.18;1.23;;;16.00;88.40;;;;;;5115395;28;20050;-81
2021/08/06 02:15:57;;;;;;;5.43;1.10;;;16.10;87.60;;;;;;5113612;28;20043;-81
2021/08/06 02:18:24;;;;;;;3.20;0.90;;;16.10;86.50;;;;;;5114730;27;20399;-81
2021/08/06 02:20:56;;;;;;;3.35;1.02;;;16.20;86.80;;;;;;5114538;27;20535;-81
2021/08/06 02:23:24;;;;;;;5.43;1.20;;;16.10;86.90;;;;;;5114690;27;20016;-82
2021/08/06 02:25:54;;;;;;;7.25;1.25;;;16.20;86.90;;;;;;5080031;28;20028;-81
2021/08/06 02:28:20;;;;;;;4.57;0.98;;;16.20;86.70;;;;;;5114806;28;20104;-82
2021/08/06 02:30:47;;;;;;;5.22;1.35;;;16.20;86.50;;;;;;5095686;28;20067;-81
2021/08/06 02:33:14;;;;;;;4.93;1.00;;;16.20;86.90;;;;;;5107842;28;20028;-82
2021/08/06 02:35:39;;;;;;;4.25;1.20;;;16.20;86.50;;;;;;5086175;28;20405;-81
2021/08/06 02:38:05;;;;;;;2.70;0.90;;;16.20;86.60;;;;;;5114724;27;20028;-82
2021/08/06 02:40:31;;;;;;;5.47;0.95;;;16.20;86.70;;;;;;5079792;28;20396;-82
2021/08/06 02:42:57;;;;;;;6.15;1.30;;;16.30;86.70;;;;;;5096268;28;20031;-83
2021/08/06 02:45:22;;;;;;;3.42;0.93;;;16.20;86.80;;;;;;5113649;28;20441;-81
2021/08/06 02:47:48;;;;;;;5.65;1.08;;;16.30;86.70;;;;;;5113967;28;20019;-82
2021/08/06 02:50:16;;;;;;;4.38;1.00;;;16.30;86.80;;;;;;5114016;28;20039;-81
2021/08/06 02:52:41;;;;;;;3.63;0.90;;;16.30;85.90;;;;;;5113846;28;20484;-82
2021/08/06 02:55:08;;;;;;;4.60;1.10;;;16.30;86.40;;;;;;5101117;28;20318;-82
2021/08/06 02:57:35;;;;;;;6.22;0.90;;;16.30;86.50;;;;;;5103958;28;20441;-80
2021/08/06 03:00:01;;;;;;;4.57;1.10;;;16.30;86.60;;;;;;5087718;28;20522;-81
2021/08/06 03:02:26;;;;;;;6.47;0.98;;;16.30;86.70;;;;;;5112411;27;20031;-83
2021/08/06 03:04:52;;;;;;;2.63;1.00;;;16.30;86.60;;;;;;5095120;28;20506;-82
2021/08/06 03:07:21;;;;;;;5.50;1.10;;;16.30;86.80;;;;;;5098407;28;20035;-82
2021/08/06 03:09:47;;;;;;;3.50;0.90;;;16.30;86.70;;;;;;5113301;28;20027;-81
2021/08/06 03:12:13;;;;;;;3.70;1.08;;;16.40;86.90;;;;;;5106751;28;20039;-83
2021/08/06 03:14:40;;;;;;;3.53;1.00;;;16.40;87.00;;;;;;5085107;28;20024;-82
2021/08/06 03:17:06;;;;;;;3.00;0.93;;;16.40;86.80;;;;;;5113731;27;20043;-81
2021/08/06 03:19:32;;;;;;;6.55;0.90;;;16.40;86.90;;;;;;5113491;28;20031;-81
2021/08/06 03:21:58;;;;;;;4.15;1.02;;;16.40;86.60;;;;;;5113797;28;20028;-81
2021/08/06 03:24:23;;;;;;;3.85;0.98;;;16.50;86.90;;;;;;5104874;28;20115;-82
2021/08/06 03:26:49;;;;;;;4.65;0.90;;;16.50;86.80;;;;;;5105018;28;20098;-81
2021/08/06 03:29:15;;;;;;;5.45;1.05;;;16.50;86.80;;;;;;5094979;28;20083;-80
2021/08/06 03:31:41;;;;;;;4.00;0.98;;;16.50;86.80;;;;;;5096588;28;20063;-80
2021/08/06 03:34:06;;;;;;;4.03;0.93;;;16.50;86.60;;;;;;5113682;28;20102;-80
2021/08/06 03:36:32;;;;;;;3.55;0.88;;;16.40;86.90;;;;;;5085494;28;20035;-82
2021/08/06 03:38:58;;;;;;;3.72;1.00;;;16.40;87.00;;;;;;5106045;28;20027;-81
2021/08/06 03:41:24;;;;;;;5.00;1.30;;;16.40;86.60;;;;;;5113059;28;20437;-80
2021/08/06 03:43:49;;;;;;;3.28;0.70;;;16.40;87.10;;;;;;5128515;27;20565;-81
2021/08/06 03:46:15;;;;;;;4.13;1.27;;;16.40;87.00;;;;;;5098136;28;20027;-81
2021/08/06 03:48:41;;;;;;;2.75;0.80;;;16.40;87.20;;;;;;5112054;28;20044;-80
2021/08/06 03:51:06;;;;;;;5.03;1.00;;;16.40;87.20;;;;;;5094511;28;20024;-82
2021/08/06 03:53:32;;;;;;;5.28;1.00;;;16.40;87.30;;;;;;5094926;28;20050;-81
2021/08/06 03:55:57;;;;;;;3.35;0.80;;;16.40;88.20;;;;;;5113231;27;20027;-81
2021/08/06 03:58:23;;;;;;;3.45;0.90;;;16.40;87.40;;;;;;5096541;28;20032;-82
2021/08/06 04:00:49;;;;;;;4.70;1.33;;;16.40;87.50;;;;;;5112606;28;20020;-81
2021/08/06 04:03:15;;;;;;;6.18;1.20;;;16.50;87.20;;;;;;5112563;28;20032;-81
2021/08/06 04:05:40;;;;;;;4.45;0.88;;;16.50;87.50;;;;;;5110881;28;20024;-80
2021/08/06 04:08:08;;;;;;;4.57;1.10;;;16.40;87.20;;;;;;5080064;28;20061;-80
2021/08/06 04:10:34;;;;;;;5.95;1.15;;;16.40;87.20;;;;;;5112452;28;20019;-81
2021/08/06 04:12:59;;;;;;;3.90;1.10;;;16.40;87.20;;;;;;5098357;28;20024;-81
2021/08/06 04:15:25;;;;;;;3.72;0.98;;;16.40;87.40;;;;;;5100657;28;20036;-81
2021/08/06 04:17:51;;;;;;;4.22;1.05;;;16.40;87.30;;;;;;5104578;28;20058;-81
2021/08/06 04:20:17;;;;;;;4.40;0.90;;;16.40;87.40;;;;;;5094216;28;20135;-81
2021/08/06 04:22:42;;;;;;;3.22;0.90;;;16.40;87.60;;;;;;5093975;28;20035;-80
2021/08/06 04:25:10;;;;;;;5.18;1.17;;;16.40;87.60;;;;;;5112676;28;20020;-81
2021/08/06 04:27:36;;;;;;;3.35;0.90;;;16.40;87.70;;;;;;5111643;28;20031;-80
2021/08/06 04:30:03;;;;;;;3.83;0.90;;;16.50;88.00;;;;;;5112072;28;20035;-81
2021/08/06 04:32:29;;;;;;;3.75;1.00;;;16.40;87.30;;;;;;5093859;28;20107;-81
2021/08/06 04:34:54;;;;;;;2.05;0.70;;;16.40;86.90;;;;;;5127810;27;20115;-82
2021/08/06 04:37:20;;;;;;;3.03;0.93;;;16.40;87.60;;;;;;5096664;28;20095;-82
2021/08/06 04:39:46;;;;;;;3.55;0.80;;;16.40;87.70;;;;;;5111886;28;20031;-82
2021/08/06 04:42:11;;;;;;;4.45;0.90;;;16.40;87.60;;;;;;5093367;28;20059;-81
2021/08/06 04:44:38;;;;;;;2.88;0.80;;;16.40;87.40;;;;;;5093686;28;20027;-82
2021/08/06 04:47:04;;;;;;;3.90;0.90;;;16.30;87.20;;;;;;5093923;28;20020;-82
2021/08/06 04:49:30;;;;;;;2.83;0.70;;;16.20;87.10;;;;;;5095909;28;20077;-82
2021/08/06 04:51:55;;;;;;;5.13;1.00;;;16.20;88.80;;;;;;5112576;28;20054;-83
2021/08/06 04:54:21;;;;;;;6.20;1.20;;;16.20;88.30;;;;;;5093742;28;20043;-82
2021/08/06 04:56:47;;;;;;;4.40;1.10;;;16.30;88.50;;;;;;5093213;28;20020;-81
2021/08/06 04:59:12;;;;;;;4.95;0.98;;;16.30;88.40;;;;;;5111970;28;20076;-82
2021/08/06 05:01:38;;;;;;;3.25;0.90;;;16.30;89.30;;;;;;5111811;28;20024;-83
2021/08/06 05:04:04;;;;;;;4.90;1.10;;;16.30;88.10;;;;;;5112370;28;20109;-82
2021/08/06 05:06:30;;;;;;;4.88;0.95;;;16.40;87.90;;;;;;5102441;28;20028;-82
2021/08/06 05:08:56;;;;;;;3.83;0.93;;;16.40;89.20;;;;;;5103685;28;20028;-82
2021/08/06 05:11:21;;;;;;;4.10;0.82;;;16.40;88.90;;;;;;5111701;28;20030;-81
2021/08/06 05:13:47;;;;;;;5.40;1.00;;;16.40;87.90;;;;;;5077337;28;20114;-82
2021/08/06 05:16:13;;;;;;;8.05;1.30;;;16.50;88.00;;;;;;5097105;28;20169;-82
2021/08/06 05:18:39;;;;;;;7.20;1.45;;;16.50;87.90;;;;;;5106067;28;20400;-82
2021/08/06 05:21:05;;;;;;;5.63;1.20;;;16.50;87.80;;;;;;5105749;28;20040;-81
2021/08/06 05:23:31;;;;;;;6.20;1.30;;;16.50;87.90;;;;;;5104524;28;20038;-81
2021/08/06 05:25:57;;;;;;;6.82;1.48;;;16.60;88.00;;;;;;5127351;27;20037;-82
2021/08/06 05:28:23;;;;;;;3.95;1.02;;;16.60;87.80;;;;;;5119373;27;20115;-82
2021/08/06 05:30:48;;;;;;;5.22;1.17;;;16.60;87.70;;;;;;5124634;27;20026;-81
2021/08/06 05:33:14;;;;;;;5.63;1.30;;;16.60;87.70;;;;;;5121390;27;20491;-83
2021/08/06 05:35:40;;;;;;;6.78;1.40;;;16.60;88.90;;;;;;5108042;27;20023;-84
2021/08/06 05:38:06;;;;;;;6.90;1.48;;;16.60;87.80;;;;;;5113554;27;20494;-82
2021/08/06 05:40:32;;;;;;;4.47;1.13;;;16.70;87.90;;;;;;5132228;27;20023;-82
2021/08/06 05:42:57;;;;;;;5.93;1.20;;;16.60;87.70;;;;;;5131805;27;20046;-82
2021/08/06 05:45:24;;;;;;;6.05;1.45;;;16.60;88.10;;;;;;5092326;28;20042;-81
2021/08/06 05:47:52;;;;;;;5.50;1.23;;;16.50;88.00;;;;;;5104582;28;20038;-81
2021/08/06 05:50:19;;;;;;;7.78;1.40;;;16.50;88.30;;;;;;5110133;28;20028;-80
2021/08/06 05:52:46;;;;;;;5.13;1.30;;;16.60;88.20;;;;;;5127834;27;20059;-80
2021/08/06 05:55:12;;;;;;;9.77;1.40;;;16.70;88.30;;;;;;5122991;27;20034;-81
2021/08/06 05:57:38;;;;;;;6.57;1.23;;;16.70;88.20;;;;;;5096519;28;20031;-80
2021/08/06 06:00:10;;;;;;;5.95;1.17;;;16.80;87.60;;;;;;5114677;28;20036;-80
2021/08/06 06:02:35;;;;;;;5.80;1.15;;;16.80;87.40;;;;;;5114365;28;20016;-79
2021/08/06 06:05:01;;;;;;;4.55;1.17;;;16.80;87.50;;;;;;5114448;28;20177;-81
2021/08/06 06:07:27;;;;;;;4.53;1.20;;;16.80;87.60;;;;;;5098282;27;20021;-81
2021/08/06 06:09:53;;;;;;;7.55;1.33;;;16.90;87.70;;;;;;5115049;28;20039;-81
2021/08/06 06:12:18;;;;;;;7.30;1.33;;;17.00;87.60;;;;;;5096252;28;20106;-81
2021/08/06 06:14:44;;;;;;;5.68;1.40;;;17.00;87.40;;;;;;5095497;28;20115;-82
2021/08/06 06:17:11;;;;;;;6.30;1.13;;;17.10;87.30;;;;;;5113514;28;20077;-82
2021/08/06 06:19:38;;;;;;;7.55;1.80;;;17.10;86.70;;;;;;5107282;27;20084;-81
2021/08/06 06:22:04;;;;;;;5.55;1.00;;;17.10;86.70;;;;;;5096904;28;20027;-82
2021/08/06 06:24:34;;;;;;;4.10;1.13;;;17.20;86.90;;;;;;5113962;28;20015;-84
2021/08/06 06:27:00;;;;;;;6.43;1.23;;;17.20;86.20;;;;;;5091395;28;20491;-87
2021/08/06 06:29:26;;;;;;;6.15;1.00;;;17.20;86.10;;;;;;5085734;28;20042;-83
2021/08/06 06:31:51;;;;;;;5.15;1.10;;;17.30;86.30;;;;;;5094980;28;20029;-85
2021/08/06 06:34:17;;;;;;;6.72;1.13;;;17.30;85.60;;;;;;5109381;28;20016;-83
2021/08/06 06:36:42;;;;;;;6.13;1.30;;;17.30;85.10;;;;;;5114460;28;20438;-87
2021/08/06 06:39:08;;;;;;;3.38;1.00;;;17.20;85.00;;;;;;5114594;28;20036;-88
2021/08/06 06:41:34;;;;;;;5.78;1.23;;;17.20;85.30;;;;;;5111046;27;20043;-84
2021/08/06 06:43:59;;;;;;;5.13;1.02;;;17.20;85.20;;;;;;5095812;28;20110;-86
2021/08/06 06:46:25;;;;;;;5.60;1.35;;;17.20;85.40;;;;;;5096391;28;20020;-84
2021/08/06 06:48:51;;;;;;;3.42;1.00;;;17.20;85.60;;;;;;5096215;28;20093;-85
2021/08/06 06:51:16;;;;;;;9.80;1.52;;;17.20;85.80;;;;;;5113286;28;20104;-85
2021/08/06 06:53:42;;;;;;;5.85;1.77;;;17.20;85.10;;;;;;5114246;28;20023;-86
2021/08/06 06:56:08;;;;;;;5.72;1.13;;;17.20;85.40;;;;;;5114884;28;20058;-85
2021/08/06 06:58:35;;;;;;;5.07;1.00;;;17.20;85.30;;;;;;5114393;28;20536;-85
2021/08/06 07:01:00;;;;;;;5.57;1.20;;;17.20;85.50;;;;;;5130029;27;20168;-85
2021/08/06 07:03:26;;;;;;;6.45;1.40;;;17.30;86.00;;;;;;5113357;28;20110;-86
2021/08/06 07:05:52;;;;;;;7.43;1.40;;;17.50;85.50;;;;;;5128825;27;20019;-86
2021/08/06 07:08:18;;;;;;;3.75;1.00;;;17.50;84.70;;;;;;5095483;28;20031;-85
2021/08/06 07:10:43;;;;;;;5.85;1.17;;;17.60;84.90;;;;;;5113426;28;20101;-86
2021/08/06 07:13:09;;;;;;;7.20;1.10;;;17.60;84.30;;;;;;5095873;28;20020;-86
2021/08/06 07:15:35;;;;;;;3.45;1.30;;;17.70;84.00;;;;;;5113368;28;20077;-86
2021/08/06 07:18:01;;;;;;;3.58;1.00;;;17.70;83.50;;;;;;5108687;28;20059;-86
2021/08/06 07:20:26;;;;;;;4.65;1.20;;;17.70;83.20;;;;;;5101785;28;20427;-87
2021/08/06 07:22:52;;;;;;;6.78;1.13;;;17.70;83.20;;;;;;5095569;28;20107;-87
2021/08/06 07:25:18;;;;;;;6.70;1.20;;;17.70;82.50;;;;;;5082028;28;20564;-86
2021/08/06 07:27:45;;;;;;;6.90;1.13;;;17.70;82.70;;;;;;5096534;28;20024;-85
2021/08/06 07:30:11;;;;;;;4.40;1.60;;;17.70;82.70;;;;;;5096957;28;20032;-86
2021/08/06 07:32:37;;;;;;;3.97;1.10;;;17.70;82.30;;;;;;5113757;28;20027;-85
2021/08/06 07:35:04;;;;;;;3.70;1.10;;;17.80;83.50;;;;;;5096384;28;20028;-86
2021/08/06 07:37:30;;;;;;;4.10;1.10;;;17.80;82.30;;;;;;5115685;28;20045;-86
2021/08/06 07:39:56;;;;;;;3.45;0.82;;;17.70;82.30;;;;;;5114565;28;20484;-86
2021/08/06 07:42:21;;;;;;;6.13;1.25;;;17.70;82.30;;;;;;5106577;28;20092;-86
2021/08/06 07:44:47;;;;;;;3.10;0.70;;;17.80;82.40;;;;;;5084766;28;20093;-87
2021/08/06 07:47:13;;;;;;;3.03;0.82;;;17.90;82.40;;;;;;5082720;28;20161;-87
2021/08/06 07:49:41;;;;;;;3.55;0.75;;;17.90;81.20;;;;;;5080348;28;20051;-86
2021/08/06 07:52:11;;;;;;;3.17;0.93;;;18.00;81.60;;;;;;5115456;28;20120;-86
2021/08/06 07:54:37;;;;;;;4.82;1.08;;;18.10;81.10;;;;;;5114940;28;20023;-86
2021/08/06 07:57:03;;;;;;;4.85;1.00;;;18.20;81.20;;;;;;5109934;28;20392;-86
2021/08/06 07:59:29;;;;;;;3.20;1.05;;;18.30;81.30;;;;;;5097480;28;20038;-87
2021/08/06 08:01:54;;;;;;;3.88;0.90;;;18.40;80.90;;;;;;5114649;28;20099;-85
2021/08/06 08:04:20;;;;;;;5.93;1.50;;;18.40;79.60;;;;;;5131423;27;20031;-87
2021/08/06 08:06:46;;;;;;;4.53;1.10;;;18.40;79.60;;;;;;5092351;28;20016;-86
2021/08/06 08:09:12;;;;;;;6.93;1.10;;;18.40;79.70;;;;;;5095097;28;20130;-86
2021/08/06 08:11:37;;;;;;;5.95;1.08;;;18.50;80.30;;;;;;5113872;28;20016;-86
2021/08/06 08:14:03;;;;;;;5.35;1.20;;;18.60;78.60;;;;;;5096544;28;20028;-87
2021/08/06 08:16:29;;;;;;;4.55;1.00;;;18.60;78.20;;;;;;5113859;28;20082;-87
2021/08/06 08:18:55;;;;;;;5.07;1.10;;;18.70;78.50;;;;;;5101487;28;20072;-87
2021/08/06 08:21:20;;;;;;;5.72;1.25;;;18.60;78.30;;;;;;5091759;28;20023;-86
2021/08/06 08:23:46;;;;;;;3.58;0.82;;;18.60;78.50;;;;;;5114027;28;20520;-87
2021/08/06 08:26:12;;;;;;;3.90;0.80;;;18.70;78.60;;;;;;5113402;28;20012;-86
2021/08/06 08:28:37;;;;;;;3.25;0.80;;;18.80;76.70;;;;;;5097565;28;20028;-86
2021/08/06 08:31:03;;;;;;;3.15;0.80;;;18.90;76.00;;;;;;5091440;28;20074;-87
2021/08/06 08:33:29;;;;;;;4.03;0.60;;;18.80;76.20;;;;;;5103950;28;20073;-87
2021/08/06 08:35:54;;;;;;;2.30;0.68;;;18.90;76.30;;;;;;5105036;28;20084;-86
2021/08/06 08:38:20;;;;;;;3.47;0.60;;;18.90;75.50;;;;;;5090607;28;20095;-86
2021/08/06 08:40:46;;;;;;;3.90;0.73;;;18.80;75.60;;;;;;5109845;28;20031;-87
2021/08/06 08:43:11;;;;;;;2.35;0.60;;;18.80;76.30;;;;;;5094483;28;20494;-86
2021/08/06 08:45:41;;;;;;;2.63;0.65;;;18.90;77.10;;;;;;5083950;28;20016;-87
2021/08/06 08:48:08;;;;;;;2.47;0.63;;;18.90;75.80;;;;;;5100115;28;20115;-88
2021/08/06 08:50:35;;;;;;;2.67;0.63;;;18.90;75.80;;;;;;5100415;28;20011;-87
2021/08/06 08:53:02;;;;;;;3.03;1.00;;;18.90;75.40;;;;;;5097118;28;20028;-87
2021/08/06 08:55:28;;;;;;;3.15;0.60;;;18.80;75.80;;;;;;5112448;28;20024;-88
2021/08/06 08:57:53;;;;;;;3.33;0.88;;;18.70;75.80;;;;;;5100755;28;20032;-86
2021/08/06 09:00:19;;;;;;;2.70;0.45;;;18.70;76.40;;;;;;5111906;28;20016;-86
2021/08/06 09:02:45;;;;;;;2.15;0.50;;;18.70;75.90;;;;;;5097800;28;20063;-87
2021/08/06 09:05:24;;;;;;;3.50;1.00;;;18.80;76.10;;;;;;5132413;27;20395;-87
2021/08/06 09:07:50;;;;;;;2.72;0.50;;;18.90;75.90;;;;;;5116210;28;20016;-86
2021/08/06 09:10:21;;;;;;;2.97;0.85;;;18.90;75.20;;;;;;5113576;28;20046;-86
2021/08/06 09:12:50;;;;;;;2.35;0.70;;;18.90;75.10;;;;;;5116017;28;20040;-86
2021/08/06 09:15:17;;;;;;;2.80;0.60;;;18.70;75.50;;;;;;5084783;28;20048;-86
2021/08/06 09:17:43;;;;;;;3.80;0.80;;;18.70;76.10;;;;;;5070808;28;20592;-87
2021/08/06 09:20:09;;;;;;;2.47;0.70;;;18.70;76.10;;;;;;5075316;28;20107;-86
2021/08/06 09:22:39;;;;;;;3.30;0.50;;;18.90;76.20;;;;;;5058011;28;20477;-87
2021/08/06 09:25:14;;;;;;;3.40;1.00;;;19.20;74.00;;;;;;5060963;28;20017;-87
2021/08/06 09:28:00;;;;;;;4.28;0.65;;;19.20;73.80;;;;;;5062355;28;20060;-87
2021/08/06 09:30:39;;;;;;;2.90;0.80;;;19.30;74.00;;;;;;5063392;28;20033;-86
2021/08/06 09:33:10;;;;;;;3.45;0.90;;;19.40;73.30;;;;;;5067790;28;20170;-86
2021/08/06 09:35:36;;;;;;;2.35;0.68;;;19.30;73.70;;;;;;5073412;28;20495;-87
2021/08/06 09:38:03;;;;;;;4.30;0.90;;;19.20;73.60;;;;;;5074896;28;20400;-88
2021/08/06 09:40:35;;;;;;;1.92;0.57;;;19.30;74.30;;;;;;5057646;28;20021;-87
2021/08/06 09:43:06;;;;;;;3.47;1.10;;;19.40;73.70;;;;;;5107295;28;20017;-86
2021/08/06 09:45:40;;;;;;;2.67;0.70;;;19.50;73.20;;;;;;5064172;28;20044;-87
2021/08/06 09:48:08;;;;;;;2.83;0.68;;;19.80;75.20;;;;;;5067401;28;20036;-87
2021/08/06 09:50:35;;;;;;;3.05;0.60;;;19.80;72.10;;;;;;5073262;28;20032;-87
2021/08/06 09:53:02;;;;;;;3.97;0.80;;;19.80;71.90;;;;;;5073540;28;20025;-87
2021/08/06 09:55:32;;;;;;;3.15;0.80;;;19.80;70.90;;;;;;5073634;28;20025;-87
2021/08/06 09:57:59;;;;;;;3.05;0.88;;;19.90;71.90;;;;;;5072911;28;20043;-87
2021/08/06 10:00:26;;;;;;;2.10;0.68;;;20.00;71.80;;;;;;5072822;28;20025;-87
2021/08/06 10:02:53;;;;;;;1.77;0.63;;;20.20;71.80;;;;;;5074429;28;20094;-87
2021/08/06 10:05:21;;;;;;;1.55;0.45;;;20.50;70.90;;;;;;5073188;28;20025;-88
2021/08/06 10:07:52;;;;;;;1.85;0.63;;;20.60;70.50;;;;;;5058369;28;20077;-86
2021/08/06 10:10:20;;;;;;;3.17;0.65;;;20.80;68.30;;;;;;5070585;28;20563;-87
2021/08/06 10:12:47;;;;;;;3.28;0.80;;;20.70;68.90;;;;;;5062031;28;20029;-87
2021/08/06 10:15:14;;;;;;;2.28;0.47;;;20.60;67.50;;;;;;5065464;28;20124;-87
2021/08/06 10:17:40;;;;;;;1.38;0.40;;;20.30;68.10;;;;;;5077100;28;20093;-87
2021/08/06 10:20:08;;;;;;;3.28;0.70;;;20.20;68.30;;;;;;5074258;28;20493;-87
2021/08/06 10:22:34;;;;;;;2.13;0.60;;;20.20;68.80;;;;;;5074613;28;20024;-87
2021/08/06 10:25:03;;;;;;;2.80;0.50;;;20.20;68.40;;;;;;5109351;27;20549;-87
2021/08/06 10:27:29;;;;;;;2.05;0.65;;;20.30;69.60;;;;;;5080273;28;20039;-87
2021/08/06 10:29:57;;;;;;;2.97;0.77;;;20.40;68.20;;;;;;5107440;27;20036;-87
2021/08/06 10:32:23;;;;;;;1.38;0.52;;;20.30;65.00;;;;;;5075372;28;20024;-87
2021/08/06 10:35:10;;;;;;;1.52;0.50;;;20.30;65.80;;;;;;5074800;28;20062;-88
2021/08/06 10:37:59;;;;;;;1.77;0.68;;;20.40;66.50;;;;;;5069011;28;20496;-87
2021/08/06 10:40:34;;;;;;;1.85;0.40;;;20.60;66.40;;;;;;5102850;28;20026;-87
2021/08/06 10:43:09;;;;;;;1.83;0.50;;;20.70;64.50;;;;;;5108146;27;20106;-86
2021/08/06 10:45:47;;;;;;;0.82;0.38;;;20.80;64.90;;;;;;5069223;28;20028;-87
2021/08/06 10:48:31;;;;;;;1.35;0.40;;;21.00;63.70;;;;;;5104961;27;20056;-89
2021/08/06 10:51:25;;;;;;;2.40;0.30;;;21.00;64.10;;;;;;5068606;28;20460;-90
2021/08/06 10:53:57;;;;;;;1.45;0.30;;;21.30;64.80;;;;;;5072740;28;20037;-92
2021/08/06 10:56:29;;;;;;;1.43;0.27;;;21.30;62.20;;;;;;5069216;28;20397;-89
2021/08/06 10:59:10;;;;;;;1.20;0.40;;;21.20;63.00;;;;;;5067776;28;20460;-91
2021/08/06 11:01:38;;;;;;;0.90;0.30;;;21.20;62.40;;;;;;5073369;28;20481;-90
2021/08/06 11:04:11;;;;;;;0.60;0.40;;;21.30;62.70;;;;;;5072784;28;20021;-90
2021/08/06 11:06:39;;;;;;;;;;;21.20;62.10;;;;;;5075684;28;20060;-91
2021/08/06 11:09:07;;;;;;;1.00;0.20;;;21.20;61.30;;;;;;5069019;28;19916;-91
2021/08/06 11:11:49;;;;;;;0.60;0.40;;;20.90;60.60;;;;;;5063154;28;20129;-92
2021/08/06 11:14:35;;;;;;;1.15;0.47;;;20.80;61.10;;;;;;5065944;28;20020;-94
2021/08/06 11:17:19;;;;;;;1.10;0.40;;;20.80;62.40;;;;;;5133941;27;20059;-89
2021/08/06 11:19:46;;;;;;;0.90;0.28;;;20.80;61.20;;;;;;5093281;28;20027;-90
2021/08/06 11:22:33;;;;;;;0.85;0.30;;;20.80;62.00;;;;;;5094482;28;20480;-91
2021/08/06 11:25:05;;;;;;;0.95;0.47;;;20.70;61.70;;;;;;5074068;28;20039;-91
2021/08/06 11:27:34;;;;;;;1.77;0.90;;;20.70;60.50;;;;;;5081463;28;20107;-91
2021/08/06 11:30:05;;;;;;;2.83;0.60;;;20.80;61.50;;;;;;5094949;28;20124;-89
2021/08/06 11:32:45;;;;;;;1.08;0.50;;;20.70;60.30;;;;;;5081541;28;20028;-88
2021/08/06 11:35:10;;;;;;;1.27;0.40;;;20.60;60.90;;;;;;5078796;28;20030;-89
2021/08/06 11:38:13;;;;;;;1.65;0.43;;;20.60;60.80;;;;;;5093255;28;20102;-90
2021/08/06 11:40:43;;;;;;;1.42;0.35;;;20.50;60.40;;;;;;5087208;28;20119;-89
2021/08/06 11:43:15;;;;;;;1.77;0.50;;;20.60;60.90;;;;;;5121296;27;20032;-90
2021/08/06 11:45:43;;;;;;;1.17;0.40;;;20.70;62.10;;;;;;5092956;28;20035;-86
2021/08/06 11:48:09;;;;;;;1.70;0.50;;;20.90;61.80;;;;;;5092688;28;20078;-90
2021/08/06 11:50:43;;;;;;;1.35;0.45;;;20.90;60.60;;;;;;5092128;28;20028;-87
2021/08/06 11:53:18;;;;;;;3.88;0.57;;;21.10;61.40;;;;;;5096875;28;20031;-90
2021/08/06 11:55:48;;;;;;;0.93;0.40;;;21.50;62.10;;;;;;5095830;28;20081;-87
2021/08/06 11:58:27;;;;;;;1.20;0.47;;;21.80;60.90;;;;;;5097764;28;20035;-90
2021/08/06 12:00:52;;;;;;;1.45;0.60;;;22.00;59.70;;;;;;5083395;28;20120;-90
2021/08/06 12:03:18;;;;;;;0.80;0.38;;;22.00;58.40;;;;;;5092656;28;20028;-91
2021/08/06 12:05:48;;;;;;;1.33;0.40;;;21.90;56.60;;;;;;5086129;28;20020;-90
2021/08/06 12:08:18;;;;;;;0.95;0.50;;;21.90;59.30;;;;;;5093987;28;20031;-91
2021/08/06 12:10:46;;;;;;;1.33;0.52;;;21.80;56.70;;;;;;5091373;28;20028;-91
2021/08/06 12:13:14;;;;;;;1.27;0.50;;;21.80;55.60;;;;;;5092656;28;20114;-90
2021/08/06 12:15:40;;;;;;;1.48;0.50;;;21.70;56.90;;;;;;5100295;28;20043;-89
2021/08/06 12:18:19;;;;;;;2.75;0.52;;;21.80;57.30;;;;;;5095154;28;20395;-92
2021/08/06 12:20:53;;;;;;;2.28;0.40;;;22.10;56.80;;;;;;5094486;28;20026;-92
2021/08/06 12:23:19;;;;;;;1.15;0.30;;;22.20;55.40;;;;;;5095286;28;20024;-91
2021/08/06 12:26:12;;;;;;;1.35;0.50;;;22.20;56.10;;;;;;5112925;28;20036;-93
2021/08/06 12:28:41;;;;;;;1.07;0.50;;;22.40;57.30;;;;;;5110934;28;20035;-92
2021/08/06 12:31:16;;;;;;;2.55;0.60;;;22.70;56.70;;;;;;5096401;28;20298;-91
2021/08/06 12:33:44;;;;;;;1.23;0.40;;;23.10;56.60;;;;;;5092627;28;20063;-88
2021/08/06 12:36:20;;;;;;;1.77;0.70;;;23.20;55.10;;;;;;5113019;28;20137;-90
2021/08/06 12:38:50;;;;;;;1.80;0.47;;;22.90;53.40;;;;;;5112511;28;20506;-91
2021/08/06 12:41:31;;;;;;;1.92;0.70;;;22.40;52.40;;;;;;5113195;28;20119;-94
2021/08/06 12:44:17;;;;;;;2.40;0.50;;;22.20;56.10;;;;;;5097480;27;20043;-92
2021/08/06 12:47:01;;;;;;;1.33;0.50;;;22.00;54.00;;;;;;5113493;28;20065;-92
2021/08/06 12:49:30;;;;;;;1.88;0.63;;;21.80;52.90;;;;;;5113060;28;20040;-93
2021/08/06 12:52:10;;;;;;;3.45;0.80;;;22.00;53.10;;;;;;5112658;28;20020;-93
2021/08/06 12:54:44;;;;;;;2.10;0.60;;;22.10;53.70;;;;;;5112552;28;20109;-94